createdAt,value
2018-05-25T00:01:27.938Z,18.50
2018-05-25T00:03:56.266Z,18.50
2018-05-25T00:06:24.529Z,18.50
2018-05-25T00:08:52.086Z,18.50
2018-05-25T00:11:20.477Z,18.50
2018-05-25T00:13:47.990Z,18.50
2018-05-25T00:16:15.493Z,18.50
2018-05-25T00:18:43.787Z,18.60
2018-05-25T00:21:12.057Z,18.50
2018-05-25T00:23:39.607Z,18.50
2018-05-25T00:26:07.876Z,18.60
2018-05-25T00:28:35.444Z,18.50
2018-05-25T00:31:03.717Z,18.40
2018-05-25T00:33:31.217Z,18.40
2018-05-25T00:35:58.765Z,18.40
2018-05-25T00:38:27.034Z,18.40
2018-05-25T00:40:55.351Z,18.40
2018-05-25T00:43:23.965Z,18.40
2018-05-25T00:45:51.613Z,18.50
2018-05-25T00:48:19.978Z,18.50
2018-05-25T00:50:48.248Z,18.40
2018-05-25T00:53:16.542Z,18.40
2018-05-25T00:55:44.082Z,18.40
2018-05-25T00:58:12.349Z,18.30
2018-05-25T01:00:40.653Z,18.40
2018-05-25T01:03:08.951Z,18.40
2018-05-25T01:05:36.526Z,18.40
2018-05-25T01:08:04.788Z,18.50
2018-05-25T01:10:34.129Z,18.40
2018-05-25T01:13:02.397Z,18.40
2018-05-25T01:15:29.939Z,18.40
2018-05-25T01:17:58.222Z,18.40
2018-05-25T01:20:26.524Z,18.40
2018-05-25T01:22:54.793Z,18.50
2018-05-25T01:25:23.242Z,18.50
2018-05-25T01:27:50.777Z,18.50
2018-05-25T01:30:19.057Z,18.50
2018-05-25T01:32:47.366Z,18.60
2018-05-25T01:35:15.633Z,18.60
2018-05-25T01:37:43.943Z,18.60
2018-05-25T01:40:12.206Z,18.60
2018-05-25T01:42:39.738Z,18.60
2018-05-25T01:45:07.245Z,18.60
2018-05-25T01:47:35.690Z,18.50
2018-05-25T01:50:04.671Z,18.60
2018-05-25T01:52:33.963Z,18.50
2018-05-25T01:55:01.465Z,18.50
2018-05-25T01:57:29.015Z,18.50
2018-05-25T01:59:57.291Z,18.60
2018-05-25T02:02:24.840Z,18.60
2018-05-25T02:04:54.025Z,18.50
2018-05-25T02:07:24.649Z,18.40
2018-05-25T02:09:53.152Z,18.40
2018-05-25T02:12:22.438Z,18.30
2018-05-25T02:14:49.934Z,18.30
2018-05-25T02:17:18.229Z,18.30
2018-05-25T02:19:47.508Z,18.30
2018-05-25T02:22:15.806Z,18.40
2018-05-25T02:24:44.124Z,18.40
2018-05-25T02:27:11.636Z,18.40
2018-05-25T02:29:39.961Z,18.40
2018-05-25T02:32:07.462Z,18.40
2018-05-25T02:34:34.993Z,18.40
2018-05-25T02:37:04.429Z,18.40
2018-05-25T02:39:32.960Z,18.40
2018-05-25T02:42:02.391Z,18.40
2018-05-25T02:44:29.975Z,18.50
2018-05-25T02:46:57.513Z,18.50
2018-05-25T02:49:25.818Z,18.40
2018-05-25T02:51:54.113Z,18.40
2018-05-25T02:54:22.592Z,18.40
2018-05-25T02:56:50.083Z,18.40
2018-05-25T02:59:18.394Z,18.30
2018-05-25T03:01:45.901Z,18.30
2018-05-25T03:04:14.207Z,18.20
2018-05-25T03:06:42.501Z,18.20
2018-05-25T03:09:10.781Z,18.20
2018-05-25T03:11:39.092Z,18.20
2018-05-25T03:14:06.601Z,18.20
2018-05-25T03:16:36.330Z,18.20
2018-05-25T03:19:05.693Z,18.20
2018-05-25T03:21:35.282Z,18.10
2018-05-25T03:24:02.815Z,18.10
2018-05-25T03:26:31.120Z,18.00
2018-05-25T03:28:58.627Z,18.00
2018-05-25T03:31:26.939Z,18.00
2018-05-25T03:33:55.224Z,18.00
2018-05-25T03:36:23.514Z,18.00
2018-05-25T03:38:54.951Z,18.00
2018-05-25T03:41:23.261Z,17.90
2018-05-25T03:43:52.663Z,17.90
2018-05-25T03:46:20.211Z,17.90
2018-05-25T03:48:48.473Z,17.90
2018-05-25T03:51:16.738Z,17.90
2018-05-25T03:53:44.272Z,17.90
2018-05-25T03:56:11.769Z,17.80
2018-05-25T03:58:51.650Z,17.80
2018-05-25T04:01:31.745Z,17.80
2018-05-25T04:03:59.265Z,17.80
2018-05-25T04:06:27.568Z,17.80
2018-05-25T04:08:55.077Z,17.80
2018-05-25T04:11:24.197Z,17.80
2018-05-25T04:13:53.700Z,17.80
2018-05-25T04:16:21.631Z,17.80
2018-05-25T04:18:49.178Z,17.70
2018-05-25T04:21:18.058Z,17.60
2018-05-25T04:23:45.597Z,17.60
2018-05-25T04:26:13.107Z,17.60
2018-05-25T04:28:40.645Z,17.60
2018-05-25T04:31:08.922Z,17.60
2018-05-25T04:33:37.222Z,17.60
2018-05-25T04:36:05.515Z,17.60
2018-05-25T04:38:34.079Z,17.60
2018-05-25T04:41:02.348Z,17.70
2018-05-25T04:43:30.646Z,17.70
2018-05-25T04:45:58.146Z,17.70
2018-05-25T04:48:26.458Z,17.70
2018-05-25T04:50:54.730Z,17.80
2018-05-25T04:53:24.133Z,17.80
2018-05-25T04:55:51.720Z,17.80
2018-05-25T04:58:20.031Z,17.80
2018-05-25T05:00:48.340Z,17.80
2018-05-25T05:03:15.840Z,17.80
2018-05-25T05:05:43.369Z,17.80
2018-05-25T05:08:10.888Z,17.80
2018-05-25T05:10:39.201Z,17.90
2018-05-25T05:13:07.465Z,17.90
2018-05-25T05:15:35.735Z,18.00
2018-05-25T05:18:05.208Z,18.00
2018-05-25T05:20:34.281Z,18.00
2018-05-25T05:23:03.685Z,18.10
2018-05-25T05:25:31.963Z,18.10
2018-05-25T05:28:00.259Z,18.30
2018-05-25T05:30:28.522Z,18.30
2018-05-25T05:32:57.374Z,18.20
2018-05-25T05:35:24.886Z,18.20
2018-05-25T05:37:53.620Z,18.20
2018-05-25T05:40:22.831Z,18.30
2018-05-25T05:42:50.333Z,18.30
2018-05-25T05:45:18.643Z,18.30
2018-05-25T05:47:46.914Z,18.40
2018-05-25T05:50:15.223Z,18.40
2018-05-25T05:52:43.501Z,18.50
2018-05-25T05:55:11.037Z,18.50
2018-05-25T05:57:38.555Z,18.60
2018-05-25T06:00:06.855Z,18.60
2018-05-25T06:02:35.129Z,18.60
2018-05-25T06:05:04.482Z,18.60
2018-05-25T06:07:31.998Z,18.60
2018-05-25T06:10:00.270Z,18.70
2018-05-25T06:12:27.862Z,18.70
2018-05-25T06:14:56.097Z,18.90
2018-05-25T06:17:23.701Z,18.90
2018-05-25T06:19:52.487Z,19.00
2018-05-25T06:22:20.019Z,19.00
2018-05-25T06:24:47.539Z,19.00
2018-05-25T06:27:15.077Z,19.10
2018-05-25T06:29:43.344Z,19.10
2018-05-25T06:32:10.855Z,19.10
2018-05-25T06:34:39.159Z,19.20
2018-05-25T06:37:06.673Z,19.10
2018-05-25T06:39:35.152Z,19.30
2018-05-25T06:42:04.187Z,19.30
2018-05-25T06:44:33.161Z,19.30
2018-05-25T06:47:00.668Z,19.30
2018-05-25T06:49:28.973Z,19.60
2018-05-25T06:51:57.241Z,19.60
2018-05-25T06:54:24.777Z,19.50
2018-05-25T06:56:52.281Z,19.70
2018-05-25T06:59:20.597Z,19.80
2018-05-25T07:01:48.094Z,19.80
2018-05-25T07:04:16.382Z,19.80
2018-05-25T07:06:43.885Z,19.80
2018-05-25T07:09:12.185Z,19.70
2018-05-25T07:11:39.720Z,19.70
2018-05-25T07:14:07.989Z,19.80
2018-05-25T07:16:35.534Z,19.80
2018-05-25T07:19:03.834Z,20.00
2018-05-25T07:21:32.134Z,20.10
2018-05-25T07:23:59.636Z,20.10
2018-05-25T07:26:27.168Z,20.40
2018-05-25T07:28:55.437Z,20.40
2018-05-25T07:31:23.751Z,20.40
2018-05-25T07:33:53.311Z,20.60
2018-05-25T07:36:20.848Z,20.50
2018-05-25T07:38:48.385Z,20.70
2018-05-25T07:41:16.641Z,20.80
2018-05-25T07:43:44.134Z,20.80
2018-05-25T07:46:11.671Z,20.80
2018-05-25T07:48:39.196Z,20.90
2018-05-25T07:51:07.470Z,21.10
2018-05-25T07:53:35.778Z,21.30
2018-05-25T07:56:05.186Z,21.40
2018-05-25T07:58:33.359Z,21.40
2018-05-25T08:01:01.630Z,21.60
2018-05-25T08:03:29.169Z,21.60
2018-05-25T08:05:56.665Z,21.70
2018-05-25T08:08:24.920Z,21.90
2018-05-25T08:10:53.641Z,22.00
2018-05-25T08:13:23.105Z,21.90
2018-05-25T08:15:50.632Z,21.90
2018-05-25T08:18:18.162Z,21.80
2018-05-25T08:20:46.456Z,21.80
2018-05-25T08:23:14.761Z,22.00
2018-05-25T08:25:43.027Z,22.10
2018-05-25T08:28:11.334Z,22.30
2018-05-25T08:30:39.598Z,22.40
2018-05-25T08:33:07.141Z,22.30
2018-05-25T08:35:35.718Z,22.50
2018-05-25T08:38:03.774Z,22.50
2018-05-25T08:40:32.069Z,22.90
2018-05-25T08:42:59.582Z,22.80
2018-05-25T08:45:27.120Z,23.00
2018-05-25T08:47:55.400Z,23.00
2018-05-25T08:50:23.685Z,23.00
2018-05-25T08:52:52.799Z,22.90
2018-05-25T08:55:20.362Z,22.90
2018-05-25T08:57:47.866Z,23.00
2018-05-25T09:00:16.165Z,23.00
2018-05-25T09:02:44.438Z,23.00
2018-05-25T09:05:12.745Z,22.90
2018-05-25T09:07:41.009Z,22.90
2018-05-25T09:10:09.270Z,22.80
2018-05-25T09:12:37.984Z,22.90
2018-05-25T09:15:06.259Z,22.90
2018-05-25T09:17:33.795Z,22.90
2018-05-25T09:20:02.067Z,22.80
2018-05-25T09:22:30.387Z,22.80
2018-05-25T09:24:58.659Z,22.90
2018-05-25T09:27:26.949Z,23.00
2018-05-25T09:29:55.217Z,23.00
2018-05-25T09:32:23.561Z,23.00
2018-05-25T09:34:51.817Z,23.00
2018-05-25T09:37:20.118Z,23.40
2018-05-25T09:39:48.399Z,23.70
2018-05-25T09:42:16.695Z,24.00
2018-05-25T09:44:44.854Z,23.90
2018-05-25T09:47:12.381Z,24.20
2018-05-25T09:49:40.658Z,24.40
2018-05-25T09:52:08.959Z,24.70
2018-05-25T09:54:36.496Z,24.70
2018-05-25T09:57:04.834Z,24.90
2018-05-25T09:59:34.191Z,24.70
2018-05-25T10:02:01.723Z,24.70
2018-05-25T10:04:30.047Z,24.50
2018-05-25T10:06:57.555Z,24.50
2018-05-25T10:09:25.820Z,24.60
2018-05-25T10:11:54.121Z,24.80
2018-05-25T10:14:22.426Z,25.10
2018-05-25T10:16:49.971Z,25.10
2018-05-25T10:19:19.245Z,25.20
2018-05-25T10:21:47.554Z,25.20
2018-05-25T10:24:16.751Z,25.20
2018-05-25T10:26:45.014Z,25.20
2018-05-25T10:29:13.306Z,25.30
2018-05-25T10:31:40.808Z,25.30
2018-05-25T10:34:09.088Z,25.30
2018-05-25T10:36:37.387Z,25.40
2018-05-25T10:39:05.604Z,25.40
2018-05-25T10:41:34.653Z,25.80
2018-05-25T10:44:03.965Z,25.80
2018-05-25T10:46:31.465Z,25.80
2018-05-25T10:48:59.753Z,25.70
2018-05-25T10:51:28.057Z,25.70
2018-05-25T10:53:55.567Z,25.70
2018-05-25T10:56:23.928Z,25.80
2018-05-25T10:58:51.848Z,25.80
2018-05-25T11:01:20.138Z,26.00
2018-05-25T11:03:48.424Z,25.90
2018-05-25T11:06:15.966Z,25.90
2018-05-25T11:08:43.503Z,25.80
2018-05-25T11:11:11.793Z,25.70
2018-05-25T11:13:40.057Z,25.60
2018-05-25T11:16:08.345Z,25.40
2018-05-25T11:18:36.711Z,25.40
2018-05-25T11:21:05.010Z,25.20
2018-05-25T11:23:34.665Z,25.10
2018-05-25T11:26:04.056Z,25.30
2018-05-25T11:31:11.294Z,25.50
2018-05-25T11:33:38.808Z,25.50
2018-05-25T11:36:06.329Z,25.50
2018-05-25T11:38:35.829Z,25.40
2018-05-25T11:41:05.235Z,25.30
2018-05-25T11:43:32.763Z,25.30
2018-05-25T11:46:00.309Z,25.40
2018-05-25T11:48:27.804Z,25.20
2018-05-25T11:50:56.130Z,25.10
2018-05-25T11:53:24.429Z,25.10
2018-05-25T11:55:53.966Z,24.90
2018-05-25T11:58:22.301Z,24.80
2018-05-25T12:00:50.566Z,24.70
2018-05-25T12:03:18.110Z,24.70
2018-05-25T12:05:46.402Z,24.50
2018-05-25T12:08:14.700Z,24.60
2018-05-25T12:10:43.011Z,24.60
2018-05-25T12:13:10.512Z,24.60
2018-05-25T12:15:38.047Z,24.60
2018-05-25T12:18:06.353Z,24.60
2018-05-25T12:20:35.565Z,24.60
2018-05-25T12:23:04.197Z,24.60
2018-05-25T12:25:31.758Z,24.60
2018-05-25T12:27:59.270Z,24.50
2018-05-25T12:30:27.885Z,24.30
2018-05-25T12:32:56.157Z,24.30
2018-05-25T12:35:23.718Z,24.30
2018-05-25T12:37:53.262Z,24.20
2018-05-25T12:40:22.688Z,24.30
2018-05-25T12:42:50.997Z,24.30
2018-05-25T12:45:19.279Z,24.30
2018-05-25T12:47:46.975Z,24.30
2018-05-25T12:50:15.288Z,24.30
2018-05-25T12:52:42.785Z,24.30
2018-05-25T12:55:10.302Z,24.30
2018-05-25T12:57:38.623Z,24.50
2018-05-25T13:00:07.884Z,25.00
2018-05-25T13:02:35.417Z,25.00
2018-05-25T13:05:02.956Z,25.10
2018-05-25T13:07:31.280Z,25.10
2018-05-25T13:09:59.587Z,25.00
2018-05-25T13:12:27.950Z,24.90
2018-05-25T13:14:56.410Z,24.90
2018-05-25T13:17:24.793Z,24.90
2018-05-25T13:19:54.195Z,24.90
2018-05-25T13:22:21.893Z,24.90
2018-05-25T13:24:50.484Z,24.80
2018-05-25T13:27:18.882Z,24.80
2018-05-25T13:29:47.487Z,24.80
2018-05-25T13:32:15.072Z,24.80
2018-05-25T13:34:43.508Z,24.90
2018-05-25T13:37:13.545Z,24.90
2018-05-25T13:39:41.933Z,25.30
2018-05-25T13:42:09.492Z,25.30
2018-05-25T13:44:37.856Z,26.00
2018-05-25T13:47:06.576Z,25.90
2018-05-25T13:49:35.316Z,26.10
2018-05-25T13:52:04.076Z,26.10
2018-05-25T13:54:32.370Z,26.50
2018-05-25T13:56:59.898Z,26.40
2018-05-25T13:59:28.474Z,26.20
2018-05-25T14:01:56.606Z,26.20
2018-05-25T14:04:24.950Z,25.90
2018-05-25T14:06:54.843Z,25.80
2018-05-25T14:09:23.633Z,25.80
2018-05-25T14:11:53.201Z,25.70
2018-05-25T14:14:22.267Z,25.50
2018-05-25T14:16:52.092Z,25.50
2018-05-25T14:19:20.393Z,25.40
2018-05-25T14:21:48.735Z,25.20
2018-05-25T14:24:16.272Z,25.20
2018-05-25T14:26:44.832Z,25.10
2018-05-25T14:29:13.247Z,25.00
2018-05-25T14:31:41.849Z,24.90
2018-05-25T14:34:09.667Z,24.90
2018-05-25T14:36:37.318Z,24.80
2018-05-25T14:39:05.739Z,24.80
2018-05-25T14:41:35.270Z,24.70
2018-05-25T14:44:03.682Z,24.70
2018-05-25T14:46:31.959Z,24.70
2018-05-25T14:48:59.523Z,24.70
2018-05-25T14:51:27.806Z,24.70
2018-05-25T14:53:55.396Z,24.70
2018-05-25T14:56:23.484Z,24.70
2018-05-25T14:58:51.044Z,24.70
2018-05-25T15:01:20.325Z,24.60
2018-05-25T15:03:47.864Z,24.60
2018-05-25T15:06:15.403Z,24.70
2018-05-25T15:08:42.923Z,24.70
2018-05-25T15:11:11.242Z,24.60
2018-05-25T15:13:38.826Z,24.60
2018-05-25T15:16:06.377Z,24.70
2018-05-25T15:18:35.093Z,24.60
2018-05-25T15:21:04.680Z,24.60
2018-05-25T15:23:32.196Z,24.50
2018-05-25T15:26:00.565Z,24.50
2018-05-25T15:28:28.240Z,24.50
2018-05-25T15:30:56.793Z,24.50
2018-05-25T15:33:24.970Z,24.60
2018-05-25T15:35:53.288Z,24.50
2018-05-25T15:38:21.577Z,24.60
2018-05-25T15:40:49.914Z,24.70
2018-05-25T15:43:18.208Z,24.80
2018-05-25T15:45:46.520Z,25.10
2018-05-25T15:48:14.235Z,25.10
2018-05-25T15:50:42.605Z,25.40
2018-05-25T15:53:10.194Z,25.30
2018-05-25T15:55:37.753Z,25.40
2018-05-25T15:58:05.306Z,25.60
2018-05-25T16:00:35.367Z,25.50
2018-05-25T16:03:03.880Z,25.50
2018-05-25T16:05:31.429Z,25.50
2018-05-25T16:07:58.965Z,25.50
2018-05-25T16:10:27.474Z,25.70
2018-05-25T16:12:55.021Z,25.70
2018-05-25T16:15:22.879Z,25.70
2018-05-25T16:17:50.414Z,25.80
2018-05-25T16:20:18.726Z,25.80
2018-05-25T16:22:46.256Z,25.80
2018-05-25T16:25:13.747Z,25.80
2018-05-25T16:27:42.170Z,26.00
2018-05-25T16:30:11.789Z,26.10
2018-05-25T16:32:40.080Z,26.10
2018-05-25T16:35:08.657Z,26.00
2018-05-25T16:37:36.971Z,26.00
2018-05-25T16:40:05.292Z,26.00
2018-05-25T16:42:34.523Z,26.00
2018-05-25T16:45:04.418Z,26.00
2018-05-25T16:47:31.981Z,26.00
2018-05-25T16:50:00.304Z,25.80
2018-05-25T16:52:27.854Z,25.80
2018-05-25T16:54:56.114Z,25.90
2018-05-25T16:57:23.632Z,25.90
2018-05-25T16:59:51.968Z,25.80
2018-05-25T17:02:20.255Z,25.70
2018-05-25T17:04:48.552Z,25.80
2018-05-25T17:07:17.951Z,25.60
2018-05-25T17:09:46.269Z,25.60
2018-05-25T17:12:14.540Z,25.60
2018-05-25T17:14:42.814Z,25.50
2018-05-25T17:17:11.127Z,25.40
2018-05-25T17:19:39.489Z,25.40
2018-05-25T17:22:06.997Z,25.40
2018-05-25T17:24:35.274Z,25.30
2018-05-25T17:27:04.099Z,25.30
2018-05-25T17:29:32.405Z,25.20
2018-05-25T17:32:00.697Z,25.20
2018-05-25T17:34:28.232Z,25.10
2018-05-25T17:36:56.511Z,25.00
2018-05-25T17:39:24.828Z,24.90
2018-05-25T17:41:52.352Z,24.90
2018-05-25T17:44:19.858Z,24.90
2018-05-25T17:46:48.159Z,24.80
2018-05-25T17:49:16.440Z,24.80
2018-05-25T17:51:44.837Z,24.70
2018-05-25T17:54:13.156Z,24.70
2018-05-25T17:56:40.689Z,24.60
2018-05-25T17:59:09.023Z,24.50
2018-05-25T18:01:37.313Z,24.50
2018-05-25T18:04:06.134Z,24.50
2018-05-25T18:06:34.650Z,24.40
2018-05-25T18:09:03.976Z,24.20
2018-05-25T18:11:32.349Z,24.20
2018-05-25T18:13:59.891Z,24.10
2018-05-25T18:16:27.414Z,24.10
2018-05-25T18:18:55.713Z,24.00
2018-05-25T18:21:24.037Z,24.00
2018-05-25T18:23:51.989Z,24.00
2018-05-25T18:26:19.528Z,23.90
2018-05-25T18:28:47.046Z,23.90
2018-05-25T18:31:15.362Z,23.90
2018-05-25T18:33:43.657Z,23.80
2018-05-25T18:36:11.967Z,23.70
2018-05-25T18:38:40.236Z,23.70
2018-05-25T18:41:08.538Z,23.70
2018-05-25T18:43:36.057Z,23.70
2018-05-25T18:46:05.269Z,23.60
2018-05-25T18:48:34.529Z,23.60
2018-05-25T18:51:03.778Z,23.60
2018-05-25T18:53:33.572Z,23.50
2018-05-25T18:56:02.894Z,23.50
2018-05-25T18:58:31.565Z,23.40
2018-05-25T19:00:59.866Z,23.40
2018-05-25T19:03:28.178Z,23.40
2018-05-25T19:05:55.749Z,23.40
2018-05-25T19:08:23.326Z,23.30
2018-05-25T19:10:52.565Z,23.20
2018-05-25T19:13:20.081Z,23.20
2018-05-25T19:15:47.608Z,23.10
2018-05-25T19:18:15.139Z,23.10
2018-05-25T19:20:43.441Z,23.00
2018-05-25T19:23:11.005Z,22.90
2018-05-25T19:25:39.266Z,22.90
2018-05-25T19:28:07.569Z,22.90
2018-05-25T19:30:35.858Z,22.80
2018-05-25T19:33:04.968Z,22.80
2018-05-25T19:35:34.246Z,22.70
2018-05-25T19:38:03.593Z,22.70
2018-05-25T19:40:33.398Z,22.70
2018-05-25T19:43:02.126Z,22.60
2018-05-25T19:45:30.422Z,22.60
2018-05-25T19:47:58.697Z,22.50
2018-05-25T19:50:26.973Z,22.50
2018-05-25T19:52:54.531Z,22.50
2018-05-25T19:55:22.767Z,22.40
2018-05-25T19:57:50.290Z,22.40
2018-05-25T20:00:18.554Z,22.30
2018-05-25T20:02:46.709Z,22.30
2018-05-25T20:05:14.991Z,22.30
2018-05-25T20:07:42.525Z,22.30
2018-05-25T20:10:10.814Z,22.30
2018-05-25T20:12:39.101Z,22.20
2018-05-25T20:15:06.617Z,22.20
2018-05-25T20:17:34.922Z,22.20
2018-05-25T20:20:04.254Z,22.20
2018-05-25T20:22:33.527Z,22.20
2018-05-25T20:25:02.185Z,22.20
2018-05-25T20:27:30.488Z,22.10
2018-05-25T20:29:58.777Z,22.10
2018-05-25T20:32:27.044Z,22.10
2018-05-25T20:34:54.562Z,22.10
2018-05-25T20:37:22.084Z,22.10
2018-05-25T20:39:50.373Z,22.00
2018-05-25T20:42:18.666Z,22.00
2018-05-25T20:44:46.981Z,21.90
2018-05-25T20:47:15.274Z,21.90
2018-05-25T20:49:44.569Z,21.90
2018-05-25T20:52:12.105Z,21.90
2018-05-25T20:54:40.377Z,21.90
2018-05-25T20:57:08.801Z,21.90
2018-05-25T20:59:37.076Z,21.80
2018-05-25T21:02:05.403Z,21.80
2018-05-25T21:04:35.057Z,21.80
2018-05-25T21:07:04.111Z,21.80
2018-05-25T21:09:33.697Z,21.70
2018-05-25T21:12:02.846Z,21.70
2018-05-25T21:14:31.150Z,21.70
2018-05-25T21:16:59.473Z,21.70
2018-05-25T21:19:27.782Z,21.60
2018-05-25T21:21:56.102Z,21.60
2018-05-25T21:24:24.382Z,21.50
2018-05-25T21:26:52.653Z,21.50
2018-05-25T21:29:20.956Z,21.50
2018-05-25T21:31:49.276Z,21.50
2018-05-25T21:34:17.585Z,21.40
2018-05-25T21:36:45.871Z,21.40
2018-05-25T21:39:14.241Z,21.40
2018-05-25T21:41:41.757Z,21.40
2018-05-25T21:44:10.057Z,21.30
2018-05-25T21:46:37.592Z,21.30
2018-05-25T21:49:05.906Z,21.30
2018-05-25T21:51:35.389Z,21.20
2018-05-25T21:54:04.274Z,21.30
2018-05-25T21:56:33.456Z,21.10
2018-05-25T21:59:00.976Z,21.10
2018-05-25T22:01:29.278Z,21.00
2018-05-25T22:03:58.453Z,20.90
2018-05-25T22:06:25.975Z,20.90
2018-05-25T22:08:53.481Z,20.90
2018-05-25T22:11:21.790Z,20.90
2018-05-25T22:13:49.309Z,20.90
2018-05-25T22:16:16.822Z,20.80
2018-05-25T22:18:45.140Z,20.90
2018-05-25T22:21:13.409Z,20.80
2018-05-25T22:23:41.715Z,20.70
2018-05-25T22:26:09.274Z,20.70
2018-05-25T22:28:37.550Z,20.60
2018-05-25T22:31:05.817Z,20.60
2018-05-25T22:33:34.781Z,20.60
2018-05-25T22:36:03.598Z,20.60
2018-05-25T22:38:33.162Z,20.50
2018-05-25T22:41:01.437Z,20.50
2018-05-25T22:43:41.410Z,20.40
2018-05-25T22:46:20.737Z,20.40
2018-05-25T22:48:59.930Z,20.50
2018-05-25T22:51:40.034Z,20.30
2018-05-25T22:54:13.897Z,20.20
2018-05-25T22:56:42.543Z,20.10
2018-05-25T22:59:10.800Z,20.10
2018-05-25T23:01:38.335Z,20.10
2018-05-25T23:04:05.846Z,20.20
2018-05-25T23:06:35.377Z,20.30
2018-05-25T23:09:04.671Z,20.10
2018-05-25T23:11:35.073Z,20.10
2018-05-25T23:14:04.821Z,20.00
2018-05-25T23:16:33.333Z,20.00
2018-05-25T23:19:02.165Z,19.90
2018-05-25T23:21:30.463Z,19.90
2018-05-25T23:23:58.001Z,20.00
2018-05-25T23:26:26.336Z,19.90
2018-05-25T23:28:53.837Z,19.90
2018-05-25T23:31:22.101Z,19.90
2018-05-25T23:33:50.392Z,19.80
2018-05-25T23:36:18.654Z,19.80
2018-05-25T23:38:46.940Z,19.80
2018-05-25T23:41:15.249Z,19.90
2018-05-25T23:43:43.515Z,19.80
2018-05-25T23:46:11.828Z,19.80
2018-05-25T23:48:39.332Z,19.70
2018-05-25T23:51:07.626Z,19.70
2018-05-25T23:53:35.898Z,19.70
2018-05-25T23:56:04.595Z,19.70
2018-05-25T23:58:33.538Z,19.60
